createdAt,value
2022-10-01T00:01:12.341Z,23.20
2022-10-01T00:03:40.550Z,23.20
2022-10-01T00:06:10.032Z,23.20
2022-10-01T00:08:39.542Z,23.20
2022-10-01T00:11:11.913Z,23.20
2022-10-01T00:13:40.112Z,23.10
2022-10-01T00:16:11.322Z,23.10
2022-10-01T00:18:39.814Z,23.10
2022-10-01T00:21:08.755Z,23.10
2022-10-01T00:23:36.510Z,23.10
2022-10-01T00:26:13.322Z,23.20
2022-10-01T00:28:41.162Z,23.10
2022-10-01T00:31:11.074Z,23.10
2022-10-01T00:33:39.374Z,23.10
2022-10-01T00:36:09.685Z,23.10
2022-10-01T00:38:40.167Z,23.10
2022-10-01T00:41:08.764Z,23.10
2022-10-01T00:43:40.052Z,23.10
2022-10-01T00:46:15.063Z,23.10
2022-10-01T00:48:50.622Z,23.10
2022-10-01T00:51:18.539Z,23.10
2022-10-01T00:53:47.374Z,23.10
2022-10-01T00:56:15.200Z,23.10
2022-10-01T00:58:43.882Z,23.10
2022-10-01T01:01:13.061Z,23.10
2022-10-01T01:03:40.860Z,23.10
2022-10-01T01:06:09.636Z,23.10
2022-10-01T01:08:37.396Z,23.10
2022-10-01T01:11:11.550Z,23.10
2022-10-01T01:13:50.139Z,23.10
2022-10-01T01:16:25.312Z,23.10
2022-10-01T01:19:00.247Z,23.10
2022-10-01T01:21:31.923Z,23.10
2022-10-01T01:24:28.788Z,23.10
2022-10-01T01:27:09.690Z,23.10
2022-10-01T01:29:44.773Z,23.10
2022-10-01T01:32:17.825Z,23.10
2022-10-01T01:34:50.984Z,23.10
2022-10-01T01:37:24.101Z,23.10
2022-10-01T01:39:56.065Z,23.10
2022-10-01T01:42:30.973Z,23.10
2022-10-01T01:45:03.374Z,23.10
2022-10-01T01:47:32.803Z,23.10
2022-10-01T01:50:03.172Z,23.00
2022-10-01T01:52:31.193Z,23.00
2022-10-01T01:54:59.303Z,23.00
2022-10-01T01:57:27.273Z,23.00
2022-10-01T01:59:55.342Z,23.00
2022-10-01T02:02:27.714Z,23.10
2022-10-01T02:04:57.730Z,23.00
2022-10-01T02:07:48.850Z,23.00
2022-10-01T02:10:31.791Z,23.00
2022-10-01T02:13:24.081Z,23.00
2022-10-01T02:16:01.194Z,23.00
2022-10-01T02:18:36.831Z,23.00
2022-10-01T02:21:13.089Z,23.00
2022-10-01T02:23:45.278Z,23.00
2022-10-01T02:26:18.342Z,23.00
2022-10-01T02:28:48.961Z,23.00
2022-10-01T02:31:19.429Z,23.00
2022-10-01T02:33:51.086Z,23.00
2022-10-01T02:36:20.496Z,23.00
2022-10-01T02:38:50.821Z,23.00
2022-10-01T02:41:24.073Z,23.00
2022-10-01T02:43:56.912Z,23.00
2022-10-01T02:46:29.834Z,23.00
2022-10-01T02:48:59.522Z,23.00
2022-10-01T02:51:35.755Z,23.00
2022-10-01T02:54:09.964Z,23.00
2022-10-01T02:56:56.431Z,23.00
2022-10-01T02:59:24.227Z,23.00
2022-10-01T03:01:52.153Z,23.00
2022-10-01T03:04:21.298Z,23.00
2022-10-01T03:06:49.022Z,23.00
2022-10-01T03:09:16.721Z,23.00
2022-10-01T03:11:44.416Z,23.00
2022-10-01T03:14:12.357Z,23.00
2022-10-01T03:16:40.085Z,23.00
2022-10-01T03:19:07.790Z,23.00
2022-10-01T03:21:37.013Z,23.00
2022-10-01T03:24:05.046Z,23.00
2022-10-01T03:26:32.937Z,23.00
2022-10-01T03:29:00.638Z,23.00
2022-10-01T03:31:28.441Z,23.00
2022-10-01T03:34:00.663Z,23.00
2022-10-01T03:36:28.742Z,23.00
2022-10-01T03:38:57.885Z,23.00
2022-10-01T03:41:25.724Z,23.00
2022-10-01T03:43:57.112Z,23.00
2022-10-01T03:46:27.453Z,23.00
2022-10-01T03:48:56.158Z,23.00
2022-10-01T03:51:24.103Z,23.00
2022-10-01T03:53:51.830Z,23.00
2022-10-01T03:56:21.026Z,23.00
2022-10-01T03:58:48.945Z,23.00
2022-10-01T04:01:16.974Z,23.00
2022-10-01T04:03:44.777Z,23.00
2022-10-01T04:06:13.521Z,23.00
2022-10-01T04:08:41.466Z,23.00
2022-10-01T04:11:09.566Z,23.00
2022-10-01T04:13:38.997Z,23.00
2022-10-01T04:16:07.745Z,23.00
2022-10-01T04:18:35.723Z,23.00
2022-10-01T04:21:03.510Z,23.00
2022-10-01T04:23:31.287Z,23.00
2022-10-01T04:26:00.998Z,23.00
2022-10-01T04:28:29.125Z,23.00
2022-10-01T04:31:12.592Z,23.00
2022-10-01T04:33:40.510Z,23.00
2022-10-01T04:36:08.423Z,23.00
2022-10-01T04:38:36.221Z,23.00
2022-10-01T04:41:04.052Z,23.00
2022-10-01T04:43:31.762Z,22.90
2022-10-01T04:46:00.814Z,22.90
2022-10-01T04:48:28.629Z,23.00
2022-10-01T04:50:56.328Z,22.90
2022-10-01T04:53:24.071Z,22.90
2022-10-01T04:55:51.780Z,22.90
2022-10-01T04:58:19.547Z,22.90
2022-10-01T05:00:47.291Z,22.90
2022-10-01T05:03:16.659Z,22.90
2022-10-01T05:05:44.406Z,22.90
2022-10-01T05:08:12.234Z,22.90
2022-10-01T05:10:40.160Z,22.90
2022-10-01T05:13:08.304Z,22.90
2022-10-01T05:15:36.618Z,22.90
2022-10-01T05:18:04.461Z,22.90
2022-10-01T05:20:34.501Z,22.90
2022-10-01T05:23:02.207Z,22.90
2022-10-01T05:25:29.943Z,22.90
2022-10-01T05:28:05.033Z,22.90
2022-10-01T05:30:33.905Z,22.90
2022-10-01T05:33:03.517Z,22.90
2022-10-01T05:35:33.231Z,22.90
2022-10-01T05:38:02.640Z,22.90
2022-10-01T05:40:31.361Z,22.90
2022-10-01T05:43:00.410Z,22.90
2022-10-01T05:45:29.101Z,22.90
2022-10-01T05:47:58.493Z,22.90
2022-10-01T05:50:26.753Z,22.90
2022-10-01T05:52:55.809Z,22.90
2022-10-01T05:55:24.360Z,22.90
2022-10-01T05:57:56.240Z,22.90
2022-10-01T06:00:24.442Z,22.90
2022-10-01T06:02:53.108Z,22.90
2022-10-01T06:05:21.453Z,22.90
2022-10-01T06:07:49.826Z,22.90
2022-10-01T06:10:19.099Z,22.90
2022-10-01T06:12:48.363Z,22.90
2022-10-01T06:15:17.240Z,22.90
2022-10-01T06:17:45.703Z,22.90
2022-10-01T06:20:14.911Z,22.90
2022-10-01T06:22:43.897Z,22.90
2022-10-01T06:25:12.071Z,22.90
2022-10-01T06:27:41.156Z,22.90
2022-10-01T06:30:10.181Z,22.90
2022-10-01T06:32:37.891Z,23.00
2022-10-01T06:35:06.138Z,23.00
2022-10-01T06:37:37.820Z,23.00
2022-10-01T06:40:07.122Z,23.00
2022-10-01T06:42:34.839Z,23.00
2022-10-01T06:45:04.354Z,23.00
2022-10-01T06:47:32.077Z,23.00
2022-10-01T06:49:59.816Z,23.00
2022-10-01T06:52:47.234Z,23.00
2022-10-01T06:55:16.780Z,23.00
2022-10-01T06:57:44.961Z,23.00
2022-10-01T07:00:15.550Z,23.00
2022-10-01T07:02:43.348Z,23.00
2022-10-01T07:05:12.335Z,23.00
2022-10-01T07:07:40.218Z,23.00
2022-10-01T07:10:10.158Z,23.00
2022-10-01T07:12:39.522Z,23.00
2022-10-01T07:15:08.655Z,23.00
2022-10-01T07:17:44.704Z,23.00
2022-10-01T07:20:12.919Z,23.00
2022-10-01T07:22:40.618Z,23.00
2022-10-01T07:25:09.274Z,23.00
2022-10-01T07:27:37.643Z,23.00
2022-10-01T07:30:06.801Z,23.00
2022-10-01T07:32:35.318Z,23.00
2022-10-01T07:35:05.827Z,23.00
2022-10-01T07:37:33.584Z,23.00
2022-10-01T07:40:06.537Z,23.00
2022-10-01T07:42:35.228Z,23.00
2022-10-01T07:45:04.189Z,23.00
2022-10-01T07:47:32.199Z,23.00
2022-10-01T07:49:59.977Z,23.00
2022-10-01T07:52:29.061Z,23.00
2022-10-01T07:54:56.791Z,23.10
2022-10-01T07:57:24.564Z,23.10
2022-10-01T07:59:55.640Z,23.10
2022-10-01T08:02:23.857Z,23.10
2022-10-01T08:05:09.428Z,23.10
2022-10-01T08:07:38.521Z,23.20
2022-10-01T08:10:07.018Z,23.20
2022-10-01T08:12:34.964Z,23.20
2022-10-01T08:15:03.185Z,23.20
2022-10-01T08:17:30.995Z,23.20
2022-10-01T08:19:58.706Z,23.10
2022-10-01T08:22:26.413Z,23.20
2022-10-01T08:24:55.453Z,23.20
2022-10-01T08:27:25.131Z,23.20
2022-10-01T08:29:53.372Z,23.20
2022-10-01T08:32:21.972Z,23.10
2022-10-01T08:34:53.331Z,23.20
2022-10-01T08:37:28.039Z,23.20
2022-10-01T08:39:57.641Z,23.10
2022-10-01T08:42:44.921Z,23.10
2022-10-01T08:45:17.254Z,23.20
2022-10-01T08:47:49.311Z,23.20
2022-10-01T08:50:32.630Z,23.20
2022-10-01T08:53:03.475Z,23.10
2022-10-01T08:55:36.437Z,23.10
2022-10-01T08:58:07.144Z,23.10
2022-10-01T09:00:39.725Z,23.10
2022-10-01T09:03:13.414Z,23.10
2022-10-01T09:05:51.199Z,23.10
2022-10-01T09:08:43.350Z,23.10
2022-10-01T09:11:21.915Z,23.10
2022-10-01T09:14:04.034Z,23.10
2022-10-01T09:16:38.080Z,23.10
2022-10-01T09:19:25.295Z,23.10
2022-10-01T09:21:57.532Z,23.10
2022-10-01T09:24:41.025Z,23.10
2022-10-01T09:27:15.791Z,23.10
2022-10-01T09:29:48.982Z,23.10
2022-10-01T09:32:20.341Z,23.10
2022-10-01T09:34:48.647Z,23.10
2022-10-01T09:37:26.846Z,23.10
2022-10-01T09:40:04.663Z,23.10
2022-10-01T09:42:33.979Z,23.10
2022-10-01T09:45:01.756Z,23.10
2022-10-01T09:47:29.612Z,23.10
2022-10-01T09:50:00.464Z,23.10
2022-10-01T09:52:33.446Z,23.10
2022-10-01T09:55:05.879Z,23.10
2022-10-01T09:57:38.995Z,23.10
2022-10-01T10:00:11.520Z,23.10
2022-10-01T10:02:48.188Z,23.10
2022-10-01T10:05:18.535Z,23.00
2022-10-01T10:07:47.684Z,23.10
2022-10-01T10:10:25.263Z,23.00
2022-10-01T10:13:00.497Z,23.10
2022-10-01T10:15:31.867Z,23.10
2022-10-01T10:18:07.334Z,23.10
2022-10-01T10:20:39.749Z,23.10
2022-10-01T10:23:08.904Z,23.10
2022-10-01T10:25:36.642Z,23.10
2022-10-01T10:28:06.350Z,23.10
2022-10-01T10:30:37.134Z,23.10
2022-10-01T10:33:07.998Z,23.10
2022-10-01T10:35:36.938Z,23.10
2022-10-01T10:38:05.201Z,23.10
2022-10-01T10:40:41.861Z,23.10
2022-10-01T10:43:20.709Z,23.10
2022-10-01T10:45:55.969Z,23.10
2022-10-01T10:48:28.858Z,23.10
2022-10-01T10:51:01.542Z,23.10
2022-10-01T10:53:40.547Z,23.10
2022-10-01T10:56:15.960Z,23.10
2022-10-01T10:58:45.840Z,23.10
2022-10-01T11:01:17.912Z,23.10
2022-10-01T11:03:48.763Z,23.10
2022-10-01T11:06:18.479Z,23.00
2022-10-01T11:08:56.985Z,23.00
2022-10-01T11:11:39.369Z,23.00
2022-10-01T11:14:23.823Z,23.00
2022-10-01T11:17:05.642Z,23.00
2022-10-01T11:19:59.473Z,23.00
2022-10-01T11:22:41.070Z,23.00
2022-10-01T11:25:26.385Z,23.00
2022-10-01T11:28:04.819Z,23.00
2022-10-01T11:30:41.849Z,23.00
2022-10-01T11:33:19.310Z,23.00
2022-10-01T11:35:57.268Z,23.00
2022-10-01T11:38:48.766Z,23.00
2022-10-01T11:41:22.980Z,23.00
2022-10-01T11:43:54.132Z,23.00
2022-10-01T11:46:33.566Z,23.00
2022-10-01T11:49:10.243Z,23.00
2022-10-01T11:51:42.551Z,23.00
2022-10-01T11:54:14.127Z,23.00
2022-10-01T11:57:01.899Z,23.00
2022-10-01T11:59:36.447Z,23.00
2022-10-01T12:02:15.548Z,23.00
2022-10-01T12:04:50.663Z,23.00
2022-10-01T12:07:26.698Z,23.00
2022-10-01T12:10:03.905Z,23.10
2022-10-01T12:12:36.921Z,23.00
2022-10-01T12:15:10.838Z,23.10
2022-10-01T12:17:48.256Z,23.10
2022-10-01T12:20:24.200Z,23.10
2022-10-01T12:22:53.884Z,23.10
2022-10-01T12:25:27.054Z,23.10
2022-10-01T12:28:02.395Z,23.10
2022-10-01T12:30:36.244Z,23.10
2022-10-01T12:33:29.098Z,23.10
2022-10-01T12:36:06.878Z,23.10
2022-10-01T12:38:48.809Z,23.10
2022-10-01T12:41:29.886Z,23.10
2022-10-01T12:44:13.528Z,23.20
2022-10-01T12:46:46.950Z,23.20
2022-10-01T12:49:25.802Z,23.20
2022-10-01T12:52:02.706Z,23.20
2022-10-01T12:54:54.296Z,23.20
2022-10-01T12:57:36.820Z,23.20
2022-10-01T13:00:11.952Z,23.30
2022-10-01T13:02:59.758Z,23.30
2022-10-01T13:05:37.788Z,23.30
2022-10-01T13:08:23.510Z,23.30
2022-10-01T13:10:59.819Z,23.30
2022-10-01T13:13:32.760Z,23.30
2022-10-01T13:16:08.868Z,23.30
2022-10-01T13:18:46.559Z,23.30
2022-10-01T13:21:23.593Z,23.40
2022-10-01T13:23:58.045Z,23.40
2022-10-01T13:26:33.076Z,23.40
2022-10-01T13:29:25.406Z,23.40
2022-10-01T13:31:57.133Z,23.40
2022-10-01T13:34:37.397Z,23.40
2022-10-01T13:37:14.854Z,23.40
2022-10-01T13:39:43.481Z,23.40
2022-10-01T13:42:22.888Z,23.50
2022-10-01T13:44:56.385Z,23.50
2022-10-01T13:47:25.016Z,23.50
2022-10-01T13:49:59.226Z,23.50
2022-10-01T13:52:28.594Z,23.50
2022-10-01T13:54:58.069Z,23.60
2022-10-01T13:57:34.073Z,23.60
2022-10-01T14:00:06.874Z,23.60
2022-10-01T14:02:39.646Z,23.60
2022-10-01T14:05:25.340Z,23.60
2022-10-01T14:08:09.560Z,23.60
2022-10-01T14:11:00.540Z,23.60
2022-10-01T14:13:47.308Z,23.70
2022-10-01T14:16:16.778Z,23.70
2022-10-01T14:18:48.685Z,23.70
2022-10-01T14:21:34.644Z,23.70
2022-10-01T14:24:15.499Z,23.70
2022-10-01T14:26:51.946Z,23.70
2022-10-01T14:29:28.934Z,23.70
2022-10-01T14:32:04.122Z,23.80
2022-10-01T14:34:44.683Z,23.70
2022-10-01T14:37:17.271Z,23.70
2022-10-01T14:39:46.693Z,23.70
2022-10-01T14:42:18.333Z,23.70
2022-10-01T14:44:47.449Z,23.70
2022-10-01T14:47:20.160Z,23.70
2022-10-01T14:49:48.431Z,23.70
2022-10-01T14:52:21.792Z,23.70
2022-10-01T14:54:57.682Z,23.60
2022-10-01T14:57:30.080Z,23.60
2022-10-01T14:59:59.970Z,23.60
2022-10-01T15:02:28.900Z,23.60
2022-10-01T15:04:58.112Z,23.60
2022-10-01T15:07:29.032Z,23.60
2022-10-01T15:10:06.831Z,23.50
2022-10-01T15:12:40.599Z,23.50
2022-10-01T15:15:18.646Z,23.50
2022-10-01T15:17:46.871Z,23.50
2022-10-01T15:20:14.962Z,23.50
2022-10-01T15:22:45.292Z,23.50
2022-10-01T15:25:21.545Z,23.50
2022-10-01T15:27:49.994Z,23.40
2022-10-01T15:30:19.307Z,23.40
2022-10-01T15:32:49.122Z,23.40
2022-10-01T15:35:20.536Z,23.40
2022-10-01T15:37:50.525Z,23.40
2022-10-01T15:40:28.166Z,23.40
2022-10-01T15:43:25.120Z,23.40
2022-10-01T15:46:20.002Z,23.40
2022-10-01T15:48:48.668Z,23.40
2022-10-01T15:51:22.124Z,23.40
2022-10-01T15:53:49.961Z,23.40
2022-10-01T15:56:21.186Z,23.40
2022-10-01T15:58:53.064Z,23.30
2022-10-01T16:01:23.956Z,23.40
2022-10-01T16:03:57.554Z,23.30
2022-10-01T16:06:28.044Z,23.30
2022-10-01T16:09:07.041Z,23.30
2022-10-01T16:11:52.350Z,23.30
2022-10-01T16:14:24.272Z,23.30
2022-10-01T16:17:12.413Z,23.30
2022-10-01T16:19:40.194Z,23.30
2022-10-01T16:22:15.597Z,23.30
2022-10-01T16:24:44.873Z,23.30
2022-10-01T16:27:17.987Z,23.30
2022-10-01T16:29:55.363Z,23.30
2022-10-01T16:32:23.305Z,23.30
2022-10-01T16:34:51.569Z,23.30
2022-10-01T16:37:19.415Z,23.30
2022-10-01T16:39:47.291Z,23.30
2022-10-01T16:42:24.524Z,23.30
2022-10-01T16:44:52.573Z,23.30
2022-10-01T16:47:20.283Z,23.20
2022-10-01T16:49:52.433Z,23.20
2022-10-01T16:52:20.162Z,23.20
2022-10-01T16:54:48.266Z,23.20
2022-10-01T16:57:17.930Z,23.20
2022-10-01T16:59:45.680Z,23.20
2022-10-01T17:02:14.968Z,23.20
2022-10-01T17:04:42.697Z,23.20
2022-10-01T17:07:10.414Z,23.20
2022-10-01T17:09:38.131Z,23.20
2022-10-01T17:12:05.868Z,23.20
2022-10-01T17:14:34.978Z,23.20
2022-10-01T17:17:02.694Z,23.20
2022-10-01T17:19:30.436Z,23.20
2022-10-01T17:21:58.150Z,23.20
2022-10-01T17:24:25.994Z,23.20
2022-10-01T17:26:54.395Z,23.20
2022-10-01T17:29:22.166Z,23.20
2022-10-01T17:31:53.017Z,23.20
2022-10-01T17:34:21.111Z,23.20
2022-10-01T17:36:48.824Z,23.20
2022-10-01T17:39:16.554Z,23.20
2022-10-01T17:41:44.256Z,23.20
2022-10-01T17:44:11.977Z,23.20
2022-10-01T17:46:39.688Z,23.20
2022-10-01T17:49:08.789Z,23.10
2022-10-01T17:51:36.646Z,23.10
2022-10-01T17:54:04.852Z,23.10
2022-10-01T17:56:33.306Z,23.10
2022-10-01T17:59:01.214Z,23.10
2022-10-01T18:01:28.961Z,23.10
2022-10-01T18:03:57.517Z,23.10
2022-10-01T18:06:26.576Z,23.10
2022-10-01T18:08:56.006Z,23.10
2022-10-01T18:11:25.076Z,23.10
2022-10-01T18:13:52.958Z,23.10
2022-10-01T18:16:21.486Z,23.10
2022-10-01T18:21:43.605Z,23.10
2022-10-01T18:24:11.352Z,23.10
2022-10-01T18:26:39.405Z,23.10
2022-10-01T18:29:07.454Z,23.10
2022-10-01T18:31:37.941Z,23.10
2022-10-01T18:34:15.889Z,23.10
2022-10-01T18:36:54.858Z,23.10
2022-10-01T18:39:28.858Z,23.10
2022-10-01T18:41:57.704Z,23.10
2022-10-01T18:44:26.268Z,23.10
2022-10-01T18:47:01.173Z,23.10
2022-10-01T18:49:48.130Z,23.00
2022-10-01T18:52:30.063Z,23.10
2022-10-01T18:55:30.258Z,23.00
2022-10-01T18:58:28.614Z,23.00
2022-10-01T19:01:04.790Z,23.00
2022-10-01T19:04:03.818Z,23.00
2022-10-01T19:06:50.159Z,23.00
2022-10-01T19:09:29.720Z,23.00
2022-10-01T19:12:05.613Z,23.00
2022-10-01T19:14:55.793Z,23.00
2022-10-01T19:17:46.629Z,23.00
2022-10-01T19:20:24.870Z,23.00
2022-10-01T19:23:07.121Z,23.00
2022-10-01T19:25:41.825Z,23.00
2022-10-01T19:28:24.002Z,23.00
2022-10-01T19:31:03.630Z,23.00
2022-10-01T19:33:35.446Z,23.00
2022-10-01T19:36:05.112Z,23.00
2022-10-01T19:38:37.278Z,23.00
2022-10-01T19:41:15.179Z,23.00
2022-10-01T19:43:51.745Z,23.00
2022-10-01T19:46:25.078Z,23.00
2022-10-01T19:48:57.003Z,23.00
2022-10-01T19:51:30.033Z,23.00
2022-10-01T19:54:01.068Z,23.00
2022-10-01T19:56:31.784Z,23.00
2022-10-01T19:59:03.078Z,23.00
2022-10-01T20:01:42.808Z,23.00
2022-10-01T20:04:21.088Z,23.00
2022-10-01T20:07:00.649Z,23.00
2022-10-01T20:09:32.039Z,23.00
2022-10-01T20:12:06.756Z,23.00
2022-10-01T20:15:07.643Z,23.00
2022-10-01T20:17:47.737Z,23.00
2022-10-01T20:20:23.171Z,23.00
2022-10-01T20:23:00.789Z,23.00
2022-10-01T20:25:35.516Z,23.00
2022-10-01T20:28:14.843Z,23.00
2022-10-01T20:30:50.676Z,23.00
2022-10-01T20:33:28.797Z,23.00
2022-10-01T20:36:05.327Z,23.00
2022-10-01T20:38:37.362Z,23.00
2022-10-01T20:41:14.267Z,23.00
2022-10-01T20:43:49.185Z,23.00
2022-10-01T20:46:24.142Z,23.00
2022-10-01T20:48:58.901Z,23.00
2022-10-01T20:51:35.850Z,23.00
2022-10-01T20:54:10.357Z,23.00
2022-10-01T20:56:42.367Z,23.00
2022-10-01T20:59:18.023Z,23.00
2022-10-01T21:01:54.570Z,23.00
2022-10-01T21:04:29.145Z,23.00
2022-10-01T21:07:02.620Z,23.00
2022-10-01T21:09:36.668Z,23.00
2022-10-01T21:12:10.591Z,23.00
2022-10-01T21:14:46.118Z,23.00
2022-10-01T21:17:30.554Z,23.00
2022-10-01T21:20:21.076Z,23.00
2022-10-01T21:23:01.378Z,23.00
2022-10-01T21:25:38.176Z,23.00
2022-10-01T21:28:16.002Z,22.90
2022-10-01T21:31:00.581Z,23.00
2022-10-01T21:33:33.214Z,22.90
2022-10-01T21:36:05.619Z,22.90
2022-10-01T21:38:41.274Z,22.90
2022-10-01T21:41:32.792Z,22.90
2022-10-01T21:44:21.776Z,23.00
2022-10-01T21:46:55.854Z,22.90
2022-10-01T21:49:35.721Z,22.90
2022-10-01T21:52:14.258Z,22.90
2022-10-01T21:55:18.383Z,22.90
2022-10-01T21:58:04.114Z,22.90
2022-10-01T22:00:32.297Z,22.90
2022-10-01T22:03:18.972Z,23.00
2022-10-01T22:05:53.770Z,22.90
2022-10-01T22:08:38.695Z,22.90
2022-10-01T22:11:12.934Z,22.90
2022-10-01T22:13:47.703Z,22.90
2022-10-01T22:16:16.956Z,22.90
2022-10-01T22:18:49.805Z,22.90
2022-10-01T22:21:23.513Z,22.90
2022-10-01T22:23:58.473Z,22.90
2022-10-01T22:26:29.962Z,22.90
2022-10-01T22:29:00.332Z,22.90
2022-10-01T22:31:33.508Z,22.90
2022-10-01T22:34:06.731Z,22.90
2022-10-01T22:36:39.898Z,22.90
2022-10-01T22:39:14.244Z,22.90
2022-10-01T22:41:46.665Z,22.90
2022-10-01T22:44:16.678Z,22.90
2022-10-01T22:47:19.050Z,22.90
2022-10-01T22:50:00.369Z,22.90
2022-10-01T22:52:35.211Z,23.00
2022-10-01T22:55:19.097Z,22.90
2022-10-01T22:57:57.088Z,22.90
2022-10-01T23:00:25.948Z,22.90
2022-10-01T23:03:05.205Z,22.90
2022-10-01T23:05:47.629Z,22.90
2022-10-01T23:08:23.979Z,22.90
2022-10-01T23:11:02.402Z,22.90
2022-10-01T23:13:38.210Z,22.90
2022-10-01T23:16:14.734Z,22.90
2022-10-01T23:18:54.436Z,22.90
2022-10-01T23:21:32.530Z,22.90
2022-10-01T23:24:09.011Z,22.90
2022-10-01T23:26:47.055Z,22.90
2022-10-01T23:29:32.026Z,22.90
2022-10-01T23:32:08.707Z,22.90
2022-10-01T23:34:46.210Z,22.90
2022-10-01T23:37:35.213Z,22.90
2022-10-01T23:40:07.386Z,22.90
2022-10-01T23:42:39.796Z,22.90
2022-10-01T23:45:19.750Z,22.90
2022-10-01T23:47:54.938Z,22.90
2022-10-01T23:50:33.650Z,22.90
2022-10-01T23:53:14.825Z,22.90
2022-10-01T23:56:09.304Z,22.90
2022-10-01T23:58:45.819Z,22.90
